Yard, TX

10:23 PM CDT on September 02, 2014 (GMT -0500)
Hadley | Change Station
CLOSE
Current Station
Personal Weather Station
Location: Tennessee Colony, TX
Elevation: 370 ft
Nearby Weather Stations

Elev 370 ft 31.83 °N, 95.85 °W | Updated 13 minutes ago

Clear
Clear
78.9 °F
Feels Like 83 °F
N
4.0
Wind Variable Wind from ESE

Today
High -- | Low -- °F
--% Chance of Precip.
Yesterday
High -- | Low -- °F
Precip. -- in
6:59 AM 7:46 PM
First Quarter, 58% visible
Pressure 29.99 in
Visibility 10.0 miles
Clouds Clear
Heat Index 83 °F
Dew Point 76 °F
Humidity 89%
Rainfall 0.10 in
Snow Depth Not available.
UV 0.0 out of 12
Pollen 10.20 out of 12
Air Quality Not available.
Flu Activity Not available.
METAR KPSN 030315Z AUTO 11007KT 10SM CLR 25/23 A2999 RMK AO2 T02500240

More Conditions Fewer Conditions

Pressure 29.99 in
Visibility 10.0 miles
Clouds Clear
Heat Index 83 °F
Dew Point 76 °F
Humidity 89%
Rainfall 0.10 in
Snow Depth Not available.
UV 0.0 out of 12
Pollen 10.20 out of 12
Air Quality Not available.
Flu Activity Not available.
METAR KPSN 030315Z AUTO 11007KT 10SM CLR 25/23 A2999 RMK AO2 T02500240

More Conditions Fewer Conditions

10-Day Weather Forecast

Almanac

Astronomy

Sep. 02, 2014 Rise Set
Actual Time 6:59 AM CDT 7:46 PM CDT
Civil Twilight 6:34 AM CDT 8:11 PM CDT
Nautical Twilight 6:05 AM CDT 8:40 PM CDT
Astronomical Twilight 5:35 AM CDT 9:10 PM CDT
Moon 2:19 PM CDT (9/2) 12:14 AM CDT (9/2)
Length of Visible Light 13h 36m
Length of Day
12h 46m
Tomorrow will be 1m 52s shorter.
First Quarter, 58% of the Moon is Illuminated
Today
First Quarter
Sep 8
Full
Sep 15
Last Quarter
Sep 24
New
Oct 1
First Quarter

Today's Extremes

State Highs State Lows

Community

WunderPhotos

Upload Photos

1,749,865 photos uploaded!

Nearby

Snow Depth

Station Depth Elevation
No new snow has been reported.

Earthquake Activity

City Distance Mag. Time & Date
No recent earthquake activity has been reported nearby.
Minimum magnitude displayed is 2.5.

Coastal Water Temperatures

Place Temperature
No Stations Reporting

Nearby Weather Stations